createdAt,value
2023-04-16T00:00:44.911Z,72.40
2023-04-16T00:01:44.902Z,71.40
2023-04-16T00:02:44.987Z,75.10
2023-04-16T00:03:45.109Z,72.20
2023-04-16T00:04:45.052Z,71.90
2023-04-16T00:05:44.855Z,69.00
2023-04-16T00:06:44.862Z,70.30
2023-04-16T00:07:44.811Z,72.40
2023-04-16T00:08:44.825Z,71.40
2023-04-16T00:09:44.800Z,74.70
2023-04-16T00:10:44.842Z,70.40
2023-04-16T00:11:44.785Z,72.10
2023-04-16T00:12:44.806Z,73.40
2023-04-16T00:13:44.766Z,71.50
2023-04-16T00:14:44.762Z,72.80
2023-04-16T00:15:44.742Z,73.50
2023-04-16T00:16:44.802Z,73.70
2023-04-16T00:17:44.759Z,72.30
2023-04-16T00:18:44.723Z,70.30
2023-04-16T00:19:44.688Z,68.80
2023-04-16T00:20:44.697Z,69.60
2023-04-16T00:21:44.691Z,71.70
2023-04-16T00:22:44.720Z,73.00
2023-04-16T00:23:44.667Z,72.50
2023-04-16T00:24:44.670Z,72.00
2023-04-16T00:25:44.710Z,74.90
2023-04-16T00:26:44.701Z,74.30
2023-04-16T00:27:44.624Z,74.80
2023-04-16T00:28:44.661Z,73.60
2023-04-16T00:29:44.600Z,74.50
2023-04-16T00:30:44.637Z,74.70
2023-04-16T00:31:44.580Z,75.30
2023-04-16T00:32:44.623Z,74.60
2023-04-16T00:33:44.547Z,75.50
2023-04-16T00:34:44.584Z,76.50
2023-04-16T00:35:44.528Z,73.10
2023-04-16T00:36:44.553Z,74.50
2023-04-16T00:37:44.515Z,71.90
2023-04-16T00:38:44.514Z,74.70
2023-04-16T00:39:44.477Z,74.50
2023-04-16T00:40:44.520Z,77.70
2023-04-16T00:41:44.460Z,76.10
2023-04-16T00:42:44.470Z,76.60
2023-04-16T00:43:44.439Z,77.90
2023-04-16T00:44:44.466Z,71.60
2023-04-16T00:45:44.427Z,72.90
2023-04-16T00:46:44.592Z,71.90
2023-04-16T00:47:44.454Z,77.60
2023-04-16T00:48:44.417Z,77.50
2023-04-16T00:49:44.381Z,75.50
2023-04-16T00:50:44.428Z,75.70
2023-04-16T00:51:44.354Z,76.90
2023-04-16T00:52:44.399Z,74.90
2023-04-16T00:53:44.335Z,73.00
2023-04-16T00:54:44.404Z,74.70
2023-04-16T00:55:44.331Z,74.40
2023-04-16T00:56:44.325Z,73.30
2023-04-16T00:57:44.320Z,76.40
2023-04-16T00:58:44.317Z,75.00
2023-04-16T00:59:44.292Z,74.50
2023-04-16T01:00:44.283Z,74.90
2023-04-16T01:01:44.304Z,78.30
2023-04-16T01:02:44.402Z,77.90
2023-04-16T01:03:44.372Z,77.20
2023-04-16T01:04:44.237Z,77.60
2023-04-16T01:05:44.237Z,76.80
2023-04-16T01:06:44.203Z,76.70
2023-04-16T01:07:44.216Z,75.60
2023-04-16T01:08:44.190Z,76.60
2023-04-16T01:09:44.196Z,76.60
2023-04-16T01:10:44.182Z,76.50
2023-04-16T01:11:44.178Z,76.50
2023-04-16T01:12:44.149Z,74.90
2023-04-16T01:13:44.153Z,76.60
2023-04-16T01:14:44.117Z,76.40
2023-04-16T01:15:44.168Z,76.60
2023-04-16T01:16:44.119Z,74.30
2023-04-16T01:17:44.140Z,74.70
2023-04-16T01:18:44.090Z,77.00
2023-04-16T01:19:44.106Z,76.10
2023-04-16T01:20:44.056Z,72.40
2023-04-16T01:21:44.072Z,73.70
2023-04-16T01:22:44.061Z,75.70
2023-04-16T01:23:44.066Z,76.10
2023-04-16T01:24:44.042Z,74.60
2023-04-16T01:25:44.024Z,75.90
2023-04-16T01:26:44.022Z,75.60
2023-04-16T01:27:44.018Z,77.00
2023-04-16T01:28:43.993Z,76.20
2023-04-16T01:29:44.004Z,74.20
2023-04-16T01:30:43.988Z,73.90
2023-04-16T01:31:43.982Z,75.70
2023-04-16T01:32:43.949Z,73.00
2023-04-16T01:33:43.958Z,75.20
2023-04-16T01:34:43.938Z,73.90
2023-04-16T01:35:43.965Z,73.10
2023-04-16T01:36:43.895Z,71.90
2023-04-16T01:37:43.921Z,73.60
2023-04-16T01:38:43.876Z,75.90
2023-04-16T01:39:43.916Z,74.90
2023-04-16T01:40:44.822Z,73.10
2023-04-16T01:41:43.876Z,69.60
2023-04-16T01:42:43.853Z,72.60
2023-04-16T01:43:43.871Z,73.20
2023-04-16T01:44:43.815Z,75.70
2023-04-16T01:45:43.820Z,72.70
2023-04-16T01:46:43.833Z,70.20
2023-04-16T01:47:43.865Z,75.70
2023-04-16T01:48:43.785Z,75.50
2023-04-16T01:49:43.778Z,76.10
2023-04-16T01:50:43.784Z,73.20
2023-04-16T01:51:43.785Z,72.50
2023-04-16T01:52:43.764Z,72.00
2023-04-16T01:53:43.734Z,73.00
2023-04-16T01:54:43.703Z,75.00
2023-04-16T01:55:43.729Z,74.60
2023-04-16T01:56:43.690Z,76.00
2023-04-16T01:57:43.705Z,73.30
2023-04-16T01:58:43.719Z,74.60
2023-04-16T01:59:43.706Z,72.20
2023-04-16T02:00:43.692Z,71.80
2023-04-16T02:01:43.729Z,74.50
2023-04-16T02:02:43.755Z,75.50
2023-04-16T02:03:43.776Z,68.90
2023-04-16T02:04:43.619Z,75.00
2023-04-16T02:05:43.763Z,75.50
2023-04-16T02:06:43.583Z,74.20
2023-04-16T02:07:43.651Z,76.30
2023-04-16T02:08:43.561Z,76.50
2023-04-16T02:09:43.577Z,71.80
2023-04-16T02:10:43.579Z,73.20
2023-04-16T02:11:43.584Z,72.70
2023-04-16T02:12:43.527Z,74.10
2023-04-16T02:13:43.527Z,74.20
2023-04-16T02:14:43.498Z,73.10
2023-04-16T02:15:43.533Z,71.10
2023-04-16T02:16:43.516Z,74.20
2023-04-16T02:17:43.521Z,74.90
2023-04-16T02:18:43.451Z,74.40
2023-04-16T02:19:43.465Z,75.40
2023-04-16T02:20:43.455Z,70.20
2023-04-16T02:21:43.463Z,73.80
2023-04-16T02:22:43.453Z,76.40
2023-04-16T02:23:43.476Z,76.50
2023-04-16T02:24:43.402Z,73.60
2023-04-16T02:25:43.499Z,72.70
2023-04-16T02:26:43.371Z,74.60
2023-04-16T02:27:43.381Z,77.00
2023-04-16T02:28:43.377Z,76.50
2023-04-16T02:29:43.387Z,77.80
2023-04-16T02:30:43.352Z,75.60
2023-04-16T02:31:43.412Z,75.70
2023-04-16T02:32:43.340Z,77.10
2023-04-16T02:33:43.326Z,76.40
2023-04-16T02:34:43.315Z,75.00
2023-04-16T02:35:43.296Z,73.60
2023-04-16T02:36:43.285Z,76.20
2023-04-16T02:37:43.299Z,74.20
2023-04-16T02:38:43.251Z,73.90
2023-04-16T02:39:43.253Z,78.20
2023-04-16T02:40:43.274Z,79.30
2023-04-16T02:41:43.237Z,73.30
2023-04-16T02:42:43.197Z,75.10
2023-04-16T02:43:43.237Z,76.50
2023-04-16T02:44:43.186Z,75.70
2023-04-16T02:45:43.196Z,75.30
2023-04-16T02:46:43.187Z,76.10
2023-04-16T02:47:43.242Z,75.00
2023-04-16T02:48:43.136Z,70.20
2023-04-16T02:49:43.165Z,76.40
2023-04-16T02:50:43.124Z,76.00
2023-04-16T02:51:43.130Z,73.40
2023-04-16T02:52:43.141Z,75.00
2023-04-16T02:53:43.109Z,75.30
2023-04-16T02:54:43.090Z,74.80
2023-04-16T02:55:43.086Z,73.60
2023-04-16T02:56:43.060Z,75.80
2023-04-16T02:57:43.107Z,77.70
2023-04-16T02:58:43.069Z,78.70
2023-04-16T02:59:43.052Z,77.60
2023-04-16T03:00:43.012Z,77.80
2023-04-16T03:01:43.063Z,78.50
2023-04-16T03:02:43.106Z,79.20
2023-04-16T03:03:43.015Z,79.50
2023-04-16T03:04:43.060Z,80.10
2023-04-16T03:05:42.987Z,79.30
2023-04-16T03:06:42.953Z,79.20
2023-04-16T03:07:42.980Z,82.50
2023-04-16T03:08:42.952Z,82.10
2023-04-16T03:09:42.951Z,81.40
2023-04-16T03:10:42.932Z,79.80
2023-04-16T03:11:42.934Z,80.90
2023-04-16T03:12:42.928Z,79.30
2023-04-16T03:13:42.958Z,79.10
2023-04-16T03:14:42.940Z,80.50
2023-04-16T03:15:42.923Z,85.40
2023-04-16T03:16:42.932Z,78.40
2023-04-16T03:17:42.929Z,78.60
2023-04-16T03:18:42.867Z,80.80
2023-04-16T03:19:42.887Z,78.50
2023-04-16T03:20:42.808Z,84.10
2023-04-16T03:21:42.840Z,83.70
2023-04-16T03:22:42.831Z,82.40
2023-04-16T03:23:42.793Z,80.10
2023-04-16T03:24:42.804Z,80.50
2023-04-16T03:25:42.772Z,83.60
2023-04-16T03:26:42.767Z,81.40
2023-04-16T03:27:42.745Z,82.10
2023-04-16T03:28:42.766Z,83.40
2023-04-16T03:29:42.713Z,79.70
2023-04-16T03:30:42.739Z,85.60
2023-04-16T03:31:42.836Z,81.10
2023-04-16T03:32:42.751Z,83.30
2023-04-16T03:33:42.668Z,80.70
2023-04-16T03:34:42.702Z,79.20
2023-04-16T03:35:42.669Z,79.00
2023-04-16T03:36:42.793Z,83.40
2023-04-16T03:37:42.639Z,81.40
2023-04-16T03:38:42.674Z,83.40
2023-04-16T03:39:42.615Z,85.10
2023-04-16T03:40:42.624Z,86.70
2023-04-16T03:41:42.594Z,84.90
2023-04-16T03:42:42.628Z,81.90
2023-04-16T03:43:42.578Z,82.70
2023-04-16T03:44:42.584Z,81.70
2023-04-16T03:45:42.548Z,79.40
2023-04-16T03:46:42.589Z,82.20
2023-04-16T03:47:42.596Z,84.40
2023-04-16T03:48:42.546Z,81.70
2023-04-16T03:49:42.527Z,82.90
2023-04-16T03:50:42.520Z,85.80
2023-04-16T03:51:42.484Z,84.10
2023-04-16T03:52:42.497Z,85.50
2023-04-16T03:53:42.503Z,82.40
2023-04-16T03:54:42.455Z,84.00
2023-04-16T03:55:42.483Z,83.60
2023-04-16T03:56:42.434Z,82.70
2023-04-16T03:57:42.448Z,85.50
2023-04-16T03:58:42.437Z,89.40
2023-04-16T03:59:42.424Z,87.40
2023-04-16T04:00:42.398Z,84.40
2023-04-16T04:01:42.454Z,84.30
2023-04-16T04:02:42.654Z,84.90
2023-04-16T04:03:42.594Z,84.20
2023-04-16T04:04:42.467Z,81.30
2023-04-16T04:05:42.367Z,85.30
2023-04-16T04:06:42.351Z,83.90
2023-04-16T04:07:42.342Z,92.40
2023-04-16T04:08:42.309Z,86.60
2023-04-16T04:09:42.357Z,85.40
2023-04-16T04:10:42.295Z,83.70
2023-04-16T04:11:42.313Z,86.70
2023-04-16T04:12:42.284Z,87.80
2023-04-16T04:13:42.281Z,83.70
2023-04-16T04:14:42.249Z,85.50
2023-04-16T04:15:42.277Z,87.20
2023-04-16T04:16:42.323Z,86.50
2023-04-16T04:17:42.276Z,88.60
2023-04-16T04:18:44.316Z,87.30
2023-04-16T04:19:47.156Z,87.30
2023-04-16T04:20:42.204Z,88.00
2023-04-16T04:21:42.200Z,85.30
2023-04-16T04:22:42.178Z,88.00
2023-04-16T04:23:42.192Z,84.20
2023-04-16T04:24:42.144Z,85.20
2023-04-16T04:25:42.156Z,84.30
2023-04-16T04:26:42.211Z,85.00
2023-04-16T04:27:42.138Z,88.00
2023-04-16T04:28:42.101Z,87.70
2023-04-16T04:29:42.120Z,85.00
2023-04-16T04:30:42.091Z,89.70
2023-04-16T04:31:42.130Z,85.60
2023-04-16T04:32:42.088Z,89.30
2023-04-16T04:33:42.072Z,88.90
2023-04-16T04:34:42.037Z,87.90
2023-04-16T04:35:42.060Z,86.10
2023-04-16T04:36:42.021Z,88.10
2023-04-16T04:37:42.056Z,89.10
2023-04-16T04:38:42.024Z,88.10
2023-04-16T04:39:42.012Z,85.90
2023-04-16T04:40:41.980Z,89.60
2023-04-16T04:41:41.987Z,90.80
2023-04-16T04:42:42.010Z,87.50
2023-04-16T04:43:41.968Z,88.90
2023-04-16T04:44:41.933Z,90.30
2023-04-16T04:45:41.975Z,90.00
2023-04-16T04:46:41.940Z,89.00
2023-04-16T04:47:41.956Z,91.80
2023-04-16T04:48:41.928Z,90.00
2023-04-16T04:49:41.912Z,93.70
2023-04-16T04:50:41.881Z,92.30
2023-04-16T04:51:41.907Z,90.70
2023-04-16T04:52:41.851Z,89.60
2023-04-16T04:53:41.887Z,93.30
2023-04-16T04:54:41.876Z,94.00
2023-04-16T04:55:41.850Z,87.80
2023-04-16T04:56:41.819Z,89.20
2023-04-16T04:57:41.868Z,88.10
2023-04-16T04:58:41.788Z,87.90
2023-04-16T04:59:41.816Z,89.70
2023-04-16T05:00:41.771Z,88.30
2023-04-16T05:01:41.851Z,88.30
2023-04-16T05:02:41.870Z,86.90
2023-04-16T05:03:41.900Z,85.20
2023-04-16T05:04:41.830Z,86.90
2023-04-16T05:05:41.744Z,88.00
2023-04-16T05:06:41.735Z,84.90
2023-04-16T05:07:41.718Z,82.80
2023-04-16T05:08:41.683Z,82.70
2023-04-16T05:09:41.709Z,81.60
2023-04-16T05:10:41.689Z,81.00
2023-04-16T05:11:41.693Z,80.90
2023-04-16T05:12:41.660Z,82.30
2023-04-16T05:13:41.659Z,81.70
2023-04-16T05:14:41.651Z,83.00
2023-04-16T05:15:41.665Z,81.00
2023-04-16T05:16:41.757Z,78.70
2023-04-16T05:17:41.676Z,78.70
2023-04-16T05:18:41.590Z,78.20
2023-04-16T05:19:41.591Z,81.30
2023-04-16T05:20:41.574Z,79.00
2023-04-16T05:21:41.599Z,79.20
2023-04-16T05:22:41.546Z,77.50
2023-04-16T05:23:41.556Z,79.80
2023-04-16T05:24:41.533Z,74.50
2023-04-16T05:25:41.532Z,72.50
2023-04-16T05:26:41.532Z,70.90
2023-04-16T05:27:41.518Z,72.90
2023-04-16T05:28:41.493Z,71.80
2023-04-16T05:29:41.499Z,73.20
2023-04-16T05:30:41.543Z,69.10
2023-04-16T05:31:41.513Z,67.70
2023-04-16T05:32:41.532Z,71.80
2023-04-16T05:33:41.490Z,69.40
2023-04-16T05:34:41.438Z,66.30
2023-04-16T05:35:41.453Z,68.60
2023-04-16T05:36:41.427Z,69.80
2023-04-16T05:37:41.452Z,68.40
2023-04-16T05:38:41.380Z,69.90
2023-04-16T05:39:41.449Z,68.90
2023-04-16T05:40:41.367Z,64.50
2023-04-16T05:41:41.413Z,72.50
2023-04-16T05:42:41.343Z,67.10
2023-04-16T05:43:42.193Z,69.40
2023-04-16T05:44:41.372Z,70.20
2023-04-16T05:45:41.461Z,71.30
2023-04-16T05:46:41.368Z,72.70
2023-04-16T05:47:41.483Z,73.00
2023-04-16T05:48:41.907Z,72.60
2023-04-16T05:49:41.320Z,72.70
2023-04-16T05:50:41.273Z,73.20
2023-04-16T05:51:41.266Z,72.40
2023-04-16T05:52:41.240Z,73.80
2023-04-16T05:53:41.250Z,71.00
2023-04-16T05:54:41.208Z,75.10
2023-04-16T05:55:41.325Z,73.20
2023-04-16T05:56:41.471Z,75.50
2023-04-16T05:57:41.207Z,72.40
2023-04-16T05:58:41.201Z,72.50
2023-04-16T05:59:41.188Z,73.50
2023-04-16T06:00:41.164Z,67.40
2023-04-16T06:01:47.716Z,71.40
2023-04-16T06:02:41.403Z,69.20
2023-04-16T06:03:41.175Z,69.70
2023-04-16T06:04:41.240Z,69.30
2023-04-16T06:05:41.207Z,68.80
2023-04-16T06:06:41.103Z,68.50
2023-04-16T06:07:41.082Z,68.40
2023-04-16T06:08:41.067Z,67.60
2023-04-16T06:09:41.074Z,68.60
2023-04-16T06:10:41.068Z,64.10
2023-04-16T06:11:41.044Z,61.80
2023-04-16T06:12:41.032Z,64.60
2023-04-16T06:13:41.043Z,62.00
2023-04-16T06:14:41.030Z,64.70
2023-04-16T06:15:41.041Z,61.70
2023-04-16T06:16:40.978Z,63.20
2023-04-16T06:17:41.055Z,62.60
2023-04-16T06:18:40.966Z,62.80
2023-04-16T06:19:40.984Z,62.70
2023-04-16T06:20:40.940Z,59.10
2023-04-16T06:21:40.952Z,59.10
2023-04-16T06:22:40.909Z,63.80
2023-04-16T06:23:40.942Z,62.60
2023-04-16T06:24:40.883Z,59.80
2023-04-16T06:25:40.915Z,59.20
2023-04-16T06:26:40.856Z,61.40
2023-04-16T06:27:40.880Z,57.30
2023-04-16T06:28:40.865Z,58.90
2023-04-16T06:29:41.864Z,57.80
2023-04-16T06:30:42.734Z,58.50
2023-04-16T06:31:40.878Z,59.50
2023-04-16T06:32:40.889Z,60.40
2023-04-16T06:33:40.812Z,57.60
2023-04-16T06:34:40.808Z,58.50
2023-04-16T06:35:40.785Z,57.60
2023-04-16T06:36:40.830Z,57.90
2023-04-16T06:37:40.761Z,59.70
2023-04-16T06:38:40.748Z,61.20
2023-04-16T06:39:40.785Z,58.90
2023-04-16T06:40:40.756Z,57.50
2023-04-16T06:41:40.892Z,59.20
2023-04-16T06:42:41.436Z,60.00
2023-04-16T06:43:40.702Z,60.30
2023-04-16T06:44:40.671Z,61.50
2023-04-16T06:45:40.809Z,59.90
2023-04-16T06:46:41.282Z,60.00
2023-04-16T06:47:40.766Z,63.70
2023-04-16T06:48:40.632Z,59.30
2023-04-16T06:49:40.664Z,61.10
2023-04-16T06:50:40.645Z,56.10
2023-04-16T06:51:40.655Z,59.80
2023-04-16T06:52:40.612Z,56.90
2023-04-16T06:53:40.637Z,60.60
2023-04-16T06:54:40.561Z,60.80
2023-04-16T06:55:40.574Z,62.10
2023-04-16T06:56:40.576Z,60.40
2023-04-16T06:57:40.642Z,59.60
2023-04-16T06:58:40.548Z,57.20
2023-04-16T06:59:40.590Z,59.00
2023-04-16T07:00:40.688Z,59.70
2023-04-16T07:01:40.516Z,59.30
2023-04-16T07:02:40.607Z,62.80
2023-04-16T07:03:40.694Z,61.70
2023-04-16T07:04:40.483Z,59.80
2023-04-16T07:05:40.473Z,60.20
2023-04-16T07:06:40.448Z,60.60
2023-04-16T07:07:40.474Z,65.80
2023-04-16T07:08:40.426Z,63.70
2023-04-16T07:09:40.464Z,61.90
2023-04-16T07:10:40.452Z,64.30
2023-04-16T07:11:40.419Z,63.60
2023-04-16T07:12:40.400Z,63.80
2023-04-16T07:13:40.392Z,64.00
2023-04-16T07:14:40.380Z,67.00
2023-04-16T07:15:40.394Z,67.10
2023-04-16T07:16:40.372Z,63.40
2023-04-16T07:17:40.392Z,64.10
2023-04-16T07:18:40.318Z,61.70
2023-04-16T07:19:40.330Z,62.00
2023-04-16T07:20:40.324Z,61.40
2023-04-16T07:21:40.316Z,58.80
2023-04-16T07:22:40.302Z,60.90
2023-04-16T07:23:40.288Z,57.50
2023-04-16T07:24:40.265Z,56.90
2023-04-16T07:25:40.269Z,55.90
2023-04-16T07:26:40.271Z,56.70
2023-04-16T07:27:40.251Z,58.90
2023-04-16T07:28:40.221Z,58.90
2023-04-16T07:29:40.249Z,59.00
2023-04-16T07:30:40.190Z,60.50
2023-04-16T07:31:40.226Z,57.30
2023-04-16T07:32:40.234Z,59.10
2023-04-16T07:33:40.185Z,60.10
2023-04-16T07:34:40.153Z,56.20
2023-04-16T07:35:40.171Z,55.70
2023-04-16T07:36:40.134Z,56.70
2023-04-16T07:37:40.139Z,58.90
2023-04-16T07:38:40.149Z,59.40
2023-04-16T07:39:40.126Z,57.50
2023-04-16T07:40:40.087Z,52.90
2023-04-16T07:41:40.102Z,56.00
2023-04-16T07:42:40.066Z,56.70
2023-04-16T07:43:40.085Z,54.40
2023-04-16T07:44:40.071Z,55.30
2023-04-16T07:45:41.338Z,53.50
2023-04-16T07:46:47.050Z,51.20
2023-04-16T07:47:40.063Z,53.70
2023-04-16T07:48:40.005Z,53.50
2023-04-16T07:49:40.030Z,54.10
2023-04-16T07:50:40.025Z,52.60
2023-04-16T07:51:40.002Z,53.10
2023-04-16T07:52:39.964Z,53.10
2023-04-16T07:53:39.977Z,54.80
2023-04-16T07:54:39.941Z,54.80
2023-04-16T07:55:39.953Z,53.60
2023-04-16T07:56:39.940Z,54.10
2023-04-16T07:57:39.952Z,52.60
2023-04-16T07:58:39.901Z,52.40
2023-04-16T07:59:39.911Z,53.30
2023-04-16T08:00:39.880Z,54.30
2023-04-16T08:01:39.888Z,52.70
2023-04-16T08:02:40.043Z,52.40
2023-04-16T08:03:40.124Z,51.00
2023-04-16T08:04:39.920Z,52.70
2023-04-16T08:05:39.853Z,52.90
2023-04-16T08:06:39.850Z,51.30
2023-04-16T08:07:39.804Z,52.20
2023-04-16T08:08:39.838Z,51.50
2023-04-16T08:09:39.785Z,52.70
2023-04-16T08:10:39.803Z,53.40
2023-04-16T08:11:39.771Z,51.90
2023-04-16T08:12:39.778Z,51.20
2023-04-16T08:13:39.745Z,51.30
2023-04-16T08:14:39.800Z,49.40
2023-04-16T08:15:39.771Z,53.50
2023-04-16T08:16:39.737Z,52.70
2023-04-16T08:17:39.746Z,53.30
2023-04-16T08:18:39.728Z,50.30
2023-04-16T08:19:39.683Z,51.10
2023-04-16T08:20:39.722Z,52.60
2023-04-16T08:21:39.671Z,50.30
2023-04-16T08:22:39.679Z,50.70
2023-04-16T08:23:39.635Z,49.80
2023-04-16T08:24:39.656Z,50.80
2023-04-16T08:25:39.617Z,51.70
2023-04-16T08:26:39.797Z,53.60
2023-04-16T08:27:39.615Z,49.20
2023-04-16T08:28:39.611Z,49.10
2023-04-16T08:29:39.575Z,51.20
2023-04-16T08:30:39.602Z,52.20
2023-04-16T08:31:39.703Z,51.60
2023-04-16T08:32:39.662Z,53.70
2023-04-16T08:33:39.551Z,47.30
2023-04-16T08:34:39.574Z,47.90
2023-04-16T08:35:39.529Z,48.90
2023-04-16T08:36:39.541Z,50.10
2023-04-16T08:37:39.528Z,50.60
2023-04-16T08:38:39.579Z,49.20
2023-04-16T08:39:39.514Z,50.50
2023-04-16T08:40:39.498Z,48.70
2023-04-16T08:41:39.458Z,47.90
2023-04-16T08:42:39.478Z,50.00
2023-04-16T08:43:39.435Z,51.20
2023-04-16T08:44:39.474Z,50.00
2023-04-16T08:45:39.408Z,47.30
2023-04-16T08:46:39.496Z,47.30
2023-04-16T08:47:39.413Z,46.70
2023-04-16T08:48:39.423Z,46.10
2023-04-16T08:49:39.372Z,49.10
2023-04-16T08:50:39.406Z,47.10
2023-04-16T08:51:39.346Z,46.10
2023-04-16T08:52:39.360Z,44.60
2023-04-16T08:53:39.345Z,44.80
2023-04-16T08:54:40.958Z,44.90
2023-04-16T08:55:39.332Z,44.60
2023-04-16T08:56:40.825Z,44.00
2023-04-16T08:57:39.292Z,41.40
2023-04-16T08:58:39.306Z,43.20
2023-04-16T08:59:39.274Z,43.90
2023-04-16T09:00:39.283Z,46.00
2023-04-16T09:01:39.279Z,43.40
2023-04-16T09:02:39.545Z,44.20
2023-04-16T09:03:39.376Z,41.10
2023-04-16T09:04:39.388Z,42.00
2023-04-16T09:05:39.233Z,39.00
2023-04-16T09:06:39.221Z,42.90
2023-04-16T09:07:39.182Z,42.80
2023-04-16T09:08:39.214Z,41.80
2023-04-16T09:09:39.162Z,42.40
2023-04-16T09:10:39.176Z,38.60
2023-04-16T09:11:39.147Z,40.00
2023-04-16T09:12:39.160Z,40.90
2023-04-16T09:13:39.111Z,41.20
2023-04-16T09:14:39.170Z,41.90
2023-04-16T09:15:39.096Z,42.10
2023-04-16T09:16:39.266Z,42.90
2023-04-16T09:17:39.118Z,42.40
2023-04-16T09:18:39.106Z,40.50
2023-04-16T09:19:39.076Z,41.10
2023-04-16T09:20:39.117Z,40.30
2023-04-16T09:21:39.041Z,39.00
2023-04-16T09:22:39.046Z,39.10
2023-04-16T09:23:39.078Z,39.10
2023-04-16T09:24:39.033Z,39.10
2023-04-16T09:25:39.008Z,39.40
2023-04-16T09:26:39.034Z,46.70
2023-04-16T09:27:38.992Z,38.90
2023-04-16T09:28:39.001Z,38.10
2023-04-16T09:29:38.953Z,39.80
2023-04-16T09:30:38.977Z,39.80
2023-04-16T09:31:38.997Z,35.60
2023-04-16T09:32:38.974Z,37.50
2023-04-16T09:33:38.919Z,38.20
2023-04-16T09:34:38.920Z,39.30
2023-04-16T09:35:38.900Z,38.30
2023-04-16T09:36:38.905Z,39.40
2023-04-16T09:37:38.893Z,39.10
2023-04-16T09:38:38.881Z,37.20
2023-04-16T09:39:38.890Z,38.40
2023-04-16T09:40:38.864Z,37.50
2023-04-16T09:41:38.828Z,37.10
2023-04-16T09:42:38.865Z,38.20
2023-04-16T09:43:38.825Z,39.00
2023-04-16T09:44:38.821Z,38.00
2023-04-16T09:45:38.808Z,38.30
2023-04-16T09:46:38.837Z,37.70
2023-04-16T09:47:38.797Z,38.10
2023-04-16T09:48:38.794Z,37.40
2023-04-16T09:49:38.742Z,38.80
2023-04-16T09:50:38.796Z,39.10
2023-04-16T09:51:38.751Z,36.10
2023-04-16T09:52:38.751Z,36.30
2023-04-16T09:53:38.718Z,37.20
2023-04-16T09:54:38.716Z,36.70
2023-04-16T09:55:38.688Z,37.10
2023-04-16T09:56:38.742Z,36.20
2023-04-16T09:57:38.668Z,37.20
2023-04-16T09:58:38.678Z,35.90
2023-04-16T09:59:38.660Z,36.00
2023-04-16T10:00:42.265Z,38.10
2023-04-16T10:01:38.646Z,37.00
2023-04-16T10:02:39.252Z,37.70
2023-04-16T10:03:38.845Z,38.50
2023-04-16T10:04:38.698Z,36.20
2023-04-16T10:05:38.581Z,36.70
2023-04-16T10:06:38.610Z,37.50
2023-04-16T10:07:38.560Z,34.00
2023-04-16T10:08:38.592Z,37.00
2023-04-16T10:09:38.571Z,35.40
2023-04-16T10:10:38.563Z,35.10
2023-04-16T10:11:38.531Z,36.80
2023-04-16T10:12:38.568Z,35.60
2023-04-16T10:13:38.498Z,35.10
2023-04-16T10:14:38.551Z,34.90
2023-04-16T10:15:38.534Z,35.50
2023-04-16T10:16:38.529Z,33.60
2023-04-16T10:17:38.540Z,34.60
2023-04-16T10:18:38.463Z,34.00
2023-04-16T10:19:38.452Z,34.20
2023-04-16T10:20:38.442Z,33.30
2023-04-16T10:21:38.451Z,35.20
2023-04-16T10:22:38.433Z,35.60
2023-04-16T10:23:38.391Z,32.60
2023-04-16T10:24:38.410Z,32.90
2023-04-16T10:25:38.373Z,34.80
2023-04-16T10:26:38.399Z,32.70
2023-04-16T10:27:38.353Z,33.00
2023-04-16T10:28:38.416Z,32.30
2023-04-16T10:29:38.339Z,33.00
2023-04-16T10:30:38.392Z,33.80
2023-04-16T10:31:38.306Z,32.50
2023-04-16T10:32:38.414Z,32.90
2023-04-16T10:33:38.285Z,32.20
2023-04-16T10:34:38.319Z,32.10
2023-04-16T10:35:38.274Z,31.30
2023-04-16T10:36:38.291Z,31.10
2023-04-16T10:37:38.282Z,33.40
2023-04-16T10:38:38.256Z,33.00
2023-04-16T10:39:38.251Z,31.50
2023-04-16T10:40:38.239Z,32.60
2023-04-16T10:41:38.219Z,31.90
2023-04-16T10:42:38.221Z,30.60
2023-04-16T10:43:38.207Z,31.20
2023-04-16T10:44:38.217Z,34.60
2023-04-16T10:45:38.151Z,32.10
2023-04-16T10:46:38.305Z,29.90
2023-04-16T10:47:38.167Z,29.10
2023-04-16T10:48:48.587Z,29.60
2023-04-16T10:49:38.112Z,29.40
2023-04-16T10:50:38.125Z,30.40
2023-04-16T10:51:38.148Z,30.60
2023-04-16T10:52:38.103Z,30.30
2023-04-16T10:53:38.072Z,29.70
2023-04-16T10:54:38.095Z,30.70
2023-04-16T10:55:38.047Z,30.20
2023-04-16T10:56:38.073Z,30.70
2023-04-16T10:57:38.020Z,30.30
2023-04-16T10:58:38.055Z,29.60
2023-04-16T10:59:38.039Z,30.60
2023-04-16T11:00:38.028Z,30.60
2023-04-16T11:01:38.117Z,31.20
2023-04-16T11:02:38.375Z,30.20
2023-04-16T11:03:38.080Z,30.60
2023-04-16T11:04:38.214Z,30.70
2023-04-16T11:05:37.951Z,30.50
2023-04-16T11:06:37.961Z,31.20
2023-04-16T11:07:37.918Z,31.00
2023-04-16T11:08:51.179Z,31.00
2023-04-16T11:09:37.909Z,31.60
2023-04-16T11:10:37.938Z,30.40
2023-04-16T11:11:37.882Z,30.40
2023-04-16T11:12:38.349Z,31.00
2023-04-16T11:13:37.858Z,31.40
2023-04-16T11:14:37.879Z,33.40
2023-04-16T11:15:37.833Z,30.40
2023-04-16T11:16:37.871Z,34.30
2023-04-16T11:17:37.864Z,32.80
2023-04-16T11:18:37.828Z,32.30
2023-04-16T11:19:37.797Z,28.90
2023-04-16T11:20:37.805Z,30.90
2023-04-16T11:21:37.792Z,30.40
2023-04-16T11:22:37.782Z,30.30
2023-04-16T11:23:37.753Z,30.30
2023-04-16T11:24:37.781Z,28.80
2023-04-16T11:25:37.739Z,28.40
2023-04-16T11:26:37.751Z,28.80
2023-04-16T11:27:37.717Z,28.50
2023-04-16T11:28:37.725Z,29.20
2023-04-16T11:29:37.693Z,28.60
2023-04-16T11:30:37.710Z,27.30
2023-04-16T11:31:37.769Z,28.60
2023-04-16T11:32:37.739Z,29.10
2023-04-16T11:33:37.647Z,28.00
2023-04-16T11:34:37.661Z,28.60
2023-04-16T11:35:37.624Z,28.10
2023-04-16T11:36:37.653Z,27.20
2023-04-16T11:37:37.621Z,27.50
2023-04-16T11:38:37.642Z,28.70
2023-04-16T11:39:37.588Z,28.40
2023-04-16T11:40:37.612Z,29.40
2023-04-16T11:41:37.565Z,28.50
2023-04-16T11:42:37.689Z,27.20
2023-04-16T11:43:37.574Z,26.70
2023-04-16T11:44:37.577Z,28.60
2023-04-16T11:45:37.534Z,27.30
2023-04-16T11:46:37.563Z,27.10
2023-04-16T11:47:37.544Z,26.20
2023-04-16T11:48:37.522Z,26.40
2023-04-16T11:49:37.492Z,26.50
2023-04-16T11:50:37.491Z,28.10
2023-04-16T11:51:37.455Z,27.50
2023-04-16T11:52:37.472Z,27.70
2023-04-16T11:53:37.447Z,28.70
2023-04-16T11:54:37.472Z,27.30
2023-04-16T11:55:37.414Z,27.50
2023-04-16T11:56:37.441Z,28.20
2023-04-16T11:57:37.399Z,26.40
2023-04-16T11:58:37.401Z,26.80
2023-04-16T11:59:37.409Z,27.00
2023-04-16T12:00:37.403Z,26.20
2023-04-16T12:01:37.360Z,26.00
2023-04-16T12:02:37.568Z,27.20
2023-04-16T12:03:37.665Z,27.00
2023-04-16T12:04:37.462Z,27.70
2023-04-16T12:05:37.351Z,26.90
2023-04-16T12:06:37.352Z,26.60
2023-04-16T12:07:37.298Z,27.50
2023-04-16T12:08:37.303Z,26.50
2023-04-16T12:09:40.253Z,25.70
2023-04-16T12:10:37.296Z,25.70
2023-04-16T12:11:37.259Z,27.20
2023-04-16T12:12:37.270Z,27.70
2023-04-16T12:13:37.237Z,25.40
2023-04-16T12:14:37.239Z,28.20
2023-04-16T12:15:37.211Z,26.90
2023-04-16T12:16:37.287Z,27.10
2023-04-16T12:17:37.227Z,27.80
2023-04-16T12:18:37.207Z,27.20
2023-04-16T12:19:37.186Z,30.50
2023-04-16T12:20:37.173Z,29.30
2023-04-16T12:21:37.179Z,32.30
2023-04-16T12:22:37.593Z,30.70
2023-04-16T12:23:37.169Z,29.70
2023-04-16T12:24:37.113Z,27.30
2023-04-16T12:25:37.124Z,29.00
2023-04-16T12:26:37.101Z,30.20
2023-04-16T12:27:37.130Z,28.90
2023-04-16T12:28:37.084Z,29.60
2023-04-16T12:29:37.099Z,26.30
2023-04-16T12:30:37.079Z,27.50
2023-04-16T12:31:37.066Z,25.60
2023-04-16T12:32:37.059Z,26.30
2023-04-16T12:33:37.066Z,26.60
2023-04-16T12:34:48.031Z,28.50
2023-04-16T12:35:37.024Z,27.60
2023-04-16T12:36:36.997Z,27.00
2023-04-16T12:37:37.007Z,25.90
2023-04-16T12:38:36.995Z,26.60
2023-04-16T12:39:36.988Z,28.30
2023-04-16T12:40:36.955Z,27.70
2023-04-16T12:41:36.961Z,26.20
2023-04-16T12:42:36.952Z,25.70
2023-04-16T12:43:36.934Z,27.30
2023-04-16T12:44:36.938Z,26.80
2023-04-16T12:45:36.917Z,27.10
2023-04-16T12:46:36.933Z,26.80
2023-04-16T12:47:36.957Z,25.80
2023-04-16T12:48:36.867Z,26.90
2023-04-16T12:49:36.912Z,27.10
2023-04-16T12:50:36.847Z,26.40
2023-04-16T12:51:36.914Z,27.20
2023-04-16T12:52:36.818Z,26.30